Time;durP1;ratioP1;P1;durP2;ratioP2;P2;SDS_P1;SDS_P2;PMS_P1;PMS_P2;Temp;Humidity;BMP_temperature;BMP_pressure;BME280_temperature;BME280_humidity;BME280_pressure;Samples;Min_cycle;Max_cycle;Signal;HPM_P1;HPM_P2
2021/08/14 00:01:29;;;;;;;7.10;5.73;;;16.80;99.90;;;;;;5032708;28;20194;-38
2021/08/14 00:03:55;;;;;;;8.47;6.40;;;16.70;99.90;;;;;;5025091;28;20316;-38
2021/08/14 00:06:20;;;;;;;9.43;5.80;;;16.60;99.90;;;;;;5025184;28;20516;-40
2021/08/14 00:08:46;;;;;;;6.43;5.83;;;16.60;99.90;;;;;;5024195;28;20206;-38
2021/08/14 00:11:13;;;;;;;8.67;6.30;;;16.50;99.90;;;;;;5031656;28;20205;-39
2021/08/14 00:13:38;;;;;;;10.37;6.90;;;16.50;99.90;;;;;;5033240;28;20229;-39
2021/08/14 00:16:04;;;;;;;6.90;5.70;;;16.40;99.90;;;;;;5028971;28;20834;-41
2021/08/14 00:18:30;;;;;;;7.53;6.37;;;16.40;99.90;;;;;;5035117;28;20191;-38
2021/08/14 00:20:55;;;;;;;6.63;5.90;;;16.40;99.90;;;;;;5028417;28;20454;-38
2021/08/14 00:23:21;;;;;;;8.43;6.77;;;16.40;99.90;;;;;;5028545;28;20205;-38
2021/08/14 00:25:47;;;;;;;6.73;6.03;;;16.30;99.90;;;;;;5036856;28;20206;-38
2021/08/14 00:28:12;;;;;;;7.30;6.50;;;16.30;99.90;;;;;;5041489;28;20593;-39
2021/08/14 00:30:38;;;;;;;8.23;6.67;;;16.20;99.90;;;;;;5036357;28;20745;-38
2021/08/14 00:33:04;;;;;;;7.90;6.57;;;16.10;99.90;;;;;;5029887;28;20229;-39
2021/08/14 00:35:29;;;;;;;7.10;5.77;;;16.20;99.90;;;;;;5028359;28;20190;-39
2021/08/14 00:37:55;;;;;;;8.70;6.73;;;16.30;99.90;;;;;;5028087;28;20187;-39
2021/08/14 00:40:21;;;;;;;11.77;6.17;;;16.40;99.90;;;;;;5028802;28;20186;-39
2021/08/14 00:42:46;;;;;;;8.00;6.30;;;16.40;99.90;;;;;;5043721;28;20192;-38
2021/08/14 00:45:12;;;;;;;8.30;5.80;;;16.40;99.90;;;;;;5036243;28;20493;-41
2021/08/14 00:47:42;;;;;;;7.47;6.77;;;16.30;99.90;;;;;;5030511;28;20808;-39
2021/08/14 00:50:10;;;;;;;6.40;5.53;;;16.30;99.90;;;;;;5035162;28;20183;-38
2021/08/14 00:52:35;;;;;;;7.40;6.70;;;16.20;99.90;;;;;;5028521;28;20472;-39
2021/08/14 00:55:01;;;;;;;6.97;6.27;;;16.20;99.90;;;;;;5027356;28;20981;-39
2021/08/14 00:57:27;;;;;;;7.50;5.60;;;16.10;99.90;;;;;;5040115;28;20288;-38
2021/08/14 00:59:53;;;;;;;11.57;6.30;;;16.10;99.90;;;;;;5034543;28;20213;-39
2021/08/14 01:02:19;;;;;;;14.90;6.53;;;16.20;99.90;;;;;;5027667;28;20202;-38
2021/08/14 01:04:50;;;;;;;9.77;6.60;;;16.30;99.90;;;;;;5033334;28;20804;-38
2021/08/14 01:07:18;;;;;;;11.20;6.47;;;16.30;99.90;;;;;;5028131;28;20479;-38
2021/08/14 01:09:45;;;;;;;10.53;6.80;;;16.40;99.90;;;;;;5027943;28;20493;-38
2021/08/14 01:12:15;;;;;;;7.63;5.90;;;16.40;99.90;;;;;;5037332;28;20471;-39
2021/08/14 01:14:43;;;;;;;7.93;6.40;;;16.30;99.90;;;;;;5042310;28;20431;-39
2021/08/14 01:17:09;;;;;;;7.70;6.80;;;16.20;99.90;;;;;;5028337;28;20512;-39
2021/08/14 01:19:35;;;;;;;7.57;6.67;;;16.20;99.90;;;;;;5028871;28;20846;-41
2021/08/14 01:22:03;;;;;;;7.53;6.67;;;16.10;99.90;;;;;;5027963;28;20463;-38
2021/08/14 01:24:29;;;;;;;15.00;7.47;;;16.10;99.90;;;;;;5026566;28;20196;-41
2021/08/14 01:26:58;;;;;;;7.87;6.30;;;16.00;99.90;;;;;;5034517;28;20417;-39
2021/08/14 01:29:23;;;;;;;7.37;6.13;;;16.10;99.90;;;;;;5037833;28;20502;-39
2021/08/14 01:31:49;;;;;;;7.30;6.43;;;16.10;99.90;;;;;;5026176;28;20465;-39
2021/08/14 01:34:21;;;;;;;6.57;5.90;;;16.10;99.90;;;;;;5039254;28;20212;-38
2021/08/14 01:36:50;;;;;;;7.13;6.17;;;16.10;99.90;;;;;;5027634;28;20289;-39
2021/08/14 01:39:16;;;;;;;8.00;6.37;;;16.10;99.90;;;;;;5026239;28;20487;-41
2021/08/14 01:41:56;;;;;;;6.97;6.37;;;16.10;99.90;;;;;;5028228;28;20515;-38
2021/08/14 01:44:22;;;;;;;9.20;7.03;;;16.10;99.90;;;;;;5037617;28;20424;-38
2021/08/14 01:46:48;;;;;;;7.03;6.30;;;16.10;99.90;;;;;;5038672;28;20947;-39
2021/08/14 01:49:13;;;;;;;9.23;7.33;;;16.10;99.90;;;;;;5041847;28;20249;-39
2021/08/14 01:51:39;;;;;;;8.40;6.90;;;16.10;99.90;;;;;;5027049;28;20218;-38
2021/08/14 01:54:05;;;;;;;6.97;6.27;;;16.10;99.90;;;;;;5027126;28;20195;-40
2021/08/14 01:56:32;;;;;;;8.90;7.30;;;16.10;99.90;;;;;;5029483;28;20190;-38
2021/08/14 01:58:58;;;;;;;7.43;6.73;;;16.10;99.90;;;;;;5037841;28;20413;-38
2021/08/14 02:01:24;;;;;;;8.80;6.80;;;16.00;99.90;;;;;;5035707;28;20860;-39
2021/08/14 02:03:50;;;;;;;7.00;6.30;;;16.00;99.90;;;;;;5028880;28;20665;-41
2021/08/14 02:06:21;;;;;;;11.67;6.40;;;16.00;99.90;;;;;;5027066;28;20194;-39
2021/08/14 02:08:47;;;;;;;7.67;6.33;;;16.00;99.90;;;;;;5026210;28;20880;-38
2021/08/14 02:11:14;;;;;;;8.50;7.03;;;16.00;99.90;;;;;;5028964;28;20758;-39
2021/08/14 02:13:42;;;;;;;8.60;7.40;;;16.00;99.90;;;;;;5040758;28;20772;-39
2021/08/14 02:16:08;;;;;;;8.70;7.40;;;16.00;99.90;;;;;;5027928;28;20575;-39
2021/08/14 02:18:34;;;;;;;7.83;7.03;;;16.10;99.90;;;;;;5029190;28;20408;-38
2021/08/14 02:21:00;;;;;;;8.90;6.80;;;16.10;99.90;;;;;;5033867;28;20435;-39
2021/08/14 02:23:25;;;;;;;9.07;7.00;;;16.10;99.90;;;;;;5026455;28;20460;-38
2021/08/14 02:25:51;;;;;;;11.97;7.13;;;16.10;99.90;;;;;;5029003;28;20715;-40
2021/08/14 02:28:17;;;;;;;8.77;7.03;;;16.10;99.90;;;;;;5032577;28;20653;-39
2021/08/14 02:30:42;;;;;;;10.53;8.20;;;16.20;99.90;;;;;;5031035;28;20202;-39
2021/08/14 02:33:08;;;;;;;11.53;7.43;;;16.10;99.90;;;;;;5026662;28;20228;-39
2021/08/14 02:35:34;;;;;;;8.47;7.57;;;16.10;99.90;;;;;;5033018;28;20186;-38
2021/08/14 02:37:59;;;;;;;10.37;7.80;;;16.20;99.90;;;;;;5026387;28;20214;-40
2021/08/14 02:40:25;;;;;;;10.33;7.43;;;16.20;99.90;;;;;;5024009;28;20199;-39
2021/08/14 02:42:51;;;;;;;9.77;7.97;;;16.20;99.90;;;;;;5039718;28;20185;-39
2021/08/14 02:45:16;;;;;;;7.37;6.60;;;16.30;99.90;;;;;;5039868;28;20193;-38
2021/08/14 02:47:42;;;;;;;8.73;7.83;;;16.30;99.90;;;;;;5027030;28;20197;-42
2021/08/14 02:50:08;;;;;;;11.33;8.57;;;16.30;99.90;;;;;;5027665;28;20196;-40
2021/08/14 02:52:34;;;;;;;12.17;7.70;;;16.30;99.90;;;;;;5026023;28;20897;-38
2021/08/14 02:55:00;;;;;;;10.80;7.30;;;16.30;99.90;;;;;;5025280;28;20619;-38
2021/08/14 02:57:25;;;;;;;9.30;7.63;;;16.30;99.90;;;;;;5035006;28;20193;-39
2021/08/14 02:59:51;;;;;;;7.93;6.40;;;16.30;99.90;;;;;;5038938;28;20174;-41
2021/08/14 03:02:17;;;;;;;8.73;7.83;;;16.30;99.90;;;;;;5026789;28;20503;-38
2021/08/14 03:04:43;;;;;;;10.80;7.83;;;16.30;99.90;;;;;;5037150;28;20261;-38
2021/08/14 03:07:09;;;;;;;9.97;6.93;;;16.30;99.90;;;;;;5026228;28;20375;-38
2021/08/14 03:09:35;;;;;;;7.97;7.07;;;16.20;99.90;;;;;;5025231;28;20777;-40
2021/08/14 03:12:00;;;;;;;9.20;7.20;;;16.20;99.90;;;;;;5027379;28;20218;-38
2021/08/14 03:14:26;;;;;;;11.03;7.50;;;16.20;99.90;;;;;;5040330;28;20219;-39
2021/08/14 03:16:52;;;;;;;11.07;7.77;;;16.10;99.90;;;;;;5025852;28;20174;-42
2021/08/14 03:19:17;;;;;;;8.90;7.43;;;16.10;99.90;;;;;;5031643;28;20207;-39
2021/08/14 03:21:43;;;;;;;11.90;8.07;;;16.10;99.90;;;;;;5026947;28;20607;-38
2021/08/14 03:24:09;;;;;;;11.33;7.60;;;16.10;99.90;;;;;;5025345;28;20194;-39
2021/08/14 03:26:34;;;;;;;10.80;8.03;;;16.10;99.90;;;;;;5028757;28;20224;-38
2021/08/14 03:29:00;;;;;;;8.33;7.03;;;16.10;99.90;;;;;;5037697;28;20185;-38
2021/08/14 03:31:26;;;;;;;9.37;7.50;;;16.10;99.90;;;;;;5038579;28;20210;-39
2021/08/14 03:33:51;;;;;;;9.97;7.10;;;16.10;99.90;;;;;;5027722;28;20240;-38
2021/08/14 03:36:17;;;;;;;10.93;7.87;;;16.10;99.90;;;;;;5026550;28;20275;-38
2021/08/14 03:38:43;;;;;;;9.50;7.87;;;16.10;99.90;;;;;;5023244;28;20205;-41
2021/08/14 03:41:09;;;;;;;13.17;8.80;;;16.10;99.90;;;;;;5026404;28;20568;-38
2021/08/14 03:43:36;;;;;;;12.80;8.87;;;16.10;99.90;;;;;;5039354;28;20185;-39
2021/08/14 03:46:02;;;;;;;9.13;7.90;;;16.10;99.90;;;;;;5034113;28;20455;-38
2021/08/14 03:48:28;;;;;;;10.87;8.53;;;16.10;99.90;;;;;;5027883;28;20481;-40
2021/08/14 03:50:53;;;;;;;10.97;8.10;;;16.10;99.90;;;;;;5041468;28;21090;-39
2021/08/14 03:53:19;;;;;;;9.70;8.23;;;16.10;99.90;;;;;;5028119;28;20679;-40
2021/08/14 03:55:45;;;;;;;11.37;9.00;;;16.10;99.90;;;;;;5028817;28;20183;-42
2021/08/14 03:58:11;;;;;;;12.53;9.07;;;16.10;99.90;;;;;;5030520;28;20190;-39
2021/08/14 04:00:37;;;;;;;10.07;8.50;;;16.20;99.90;;;;;;5031018;28;20723;-38
2021/08/14 04:03:02;;;;;;;10.87;8.60;;;16.20;99.90;;;;;;5029626;28;20261;-38
2021/08/14 04:05:28;;;;;;;12.83;9.03;;;16.20;99.90;;;;;;5037912;28;20217;-39
2021/08/14 04:07:54;;;;;;;10.27;8.80;;;16.20;99.90;;;;;;5028992;28;20288;-39
2021/08/14 04:10:20;;;;;;;13.20;9.20;;;16.20;99.90;;;;;;5029626;28;20194;-40
2021/08/14 04:12:45;;;;;;;13.73;9.40;;;16.20;99.90;;;;;;5037472;28;20214;-40
2021/08/14 04:15:11;;;;;;;14.67;9.90;;;16.20;99.90;;;;;;5044013;28;20775;-42
2021/08/14 04:17:38;;;;;;;9.77;8.73;;;16.20;99.90;;;;;;5037440;28;20198;-39
2021/08/14 04:20:05;;;;;;;13.17;9.40;;;16.20;99.90;;;;;;5032699;28;20424;-40
2021/08/14 04:22:31;;;;;;;13.50;9.37;;;16.20;99.90;;;;;;5029190;28;20770;-38
2021/08/14 04:24:57;;;;;;;11.47;8.80;;;16.20;99.90;;;;;;5029077;28;20417;-41
2021/08/14 04:27:23;;;;;;;10.07;8.23;;;16.10;99.90;;;;;;5033063;28;20560;-38
2021/08/14 04:29:49;;;;;;;11.13;9.10;;;16.10;99.90;;;;;;5045150;28;20416;-39
2021/08/14 04:32:15;;;;;;;11.07;8.83;;;16.10;99.90;;;;;;5029056;28;21180;-38
2021/08/14 04:34:41;;;;;;;10.17;8.20;;;16.20;99.90;;;;;;5028702;28;20563;-39
2021/08/14 04:37:07;;;;;;;11.73;8.47;;;16.20;99.90;;;;;;5028248;28;20421;-39
2021/08/14 04:39:32;;;;;;;14.83;9.73;;;16.20;99.90;;;;;;5026413;28;20216;-38
2021/08/14 04:41:58;;;;;;;11.40;9.17;;;16.20;99.90;;;;;;5030676;28;20584;-40
2021/08/14 04:44:24;;;;;;;14.60;9.80;;;16.30;99.90;;;;;;5039796;28;20190;-43
2021/08/14 04:46:49;;;;;;;13.50;8.73;;;16.20;99.90;;;;;;5032005;28;20194;-38
2021/08/14 04:49:15;;;;;;;15.37;9.33;;;16.30;99.90;;;;;;5028454;28;20549;-39
2021/08/14 04:51:41;;;;;;;10.70;8.20;;;16.30;99.90;;;;;;5036240;28;20331;-39
2021/08/14 04:54:06;;;;;;;12.83;9.43;;;16.30;99.90;;;;;;5028321;28;20186;-39
2021/08/14 04:56:32;;;;;;;10.90;8.80;;;16.30;99.90;;;;;;5029491;28;20561;-41
2021/08/14 04:58:59;;;;;;;10.83;8.87;;;16.30;99.90;;;;;;5032503;28;20174;-40
2021/08/14 05:01:25;;;;;;;12.20;9.20;;;16.30;99.90;;;;;;5033150;28;20190;-38
2021/08/14 05:03:51;;;;;;;11.63;8.93;;;16.30;99.90;;;;;;5027842;28;20440;-40
2021/08/14 05:06:16;;;;;;;14.60;9.23;;;16.40;99.90;;;;;;5032421;28;20351;-38
2021/08/14 05:08:42;;;;;;;11.87;8.90;;;16.40;99.90;;;;;;5026971;28;20213;-38
2021/08/14 05:11:07;;;;;;;11.70;9.30;;;16.40;99.90;;;;;;5028761;28;20215;-39
2021/08/14 05:13:33;;;;;;;10.93;7.90;;;16.40;99.90;;;;;;5039392;28;20189;-40
2021/08/14 05:15:59;;;;;;;12.93;8.60;;;16.40;99.90;;;;;;5045477;28;20186;-40
2021/08/14 05:18:24;;;;;;;11.47;8.50;;;16.40;99.90;;;;;;5030219;28;20233;-38
2021/08/14 05:20:50;;;;;;;13.53;9.60;;;16.40;99.90;;;;;;5030020;28;20190;-40
2021/08/14 05:23:16;;;;;;;13.60;9.30;;;16.40;99.90;;;;;;5027667;28;20213;-39
2021/08/14 05:25:41;;;;;;;10.40;8.80;;;16.40;99.90;;;;;;5027791;28;20346;-39
2021/08/14 05:28:07;;;;;;;11.37;8.23;;;16.50;99.90;;;;;;5032680;28;20186;-39
2021/08/14 05:30:32;;;;;;;12.37;9.00;;;16.50;99.90;;;;;;5038415;28;20202;-38
2021/08/14 05:32:58;;;;;;;18.13;10.57;;;16.50;99.90;;;;;;5029014;28;20186;-41
2021/08/14 05:35:24;;;;;;;14.33;8.77;;;16.50;99.90;;;;;;5035184;28;20186;-39
2021/08/14 05:37:49;;;;;;;12.17;8.30;;;16.50;99.90;;;;;;5030551;28;20236;-38
2021/08/14 05:40:15;;;;;;;11.47;8.27;;;16.60;99.90;;;;;;5025206;28;20286;-39
2021/08/14 05:42:41;;;;;;;9.80;8.47;;;16.60;99.90;;;;;;5031417;28;20285;-39
2021/08/14 05:45:07;;;;;;;11.70;9.03;;;16.70;99.90;;;;;;5042620;28;20220;-39
2021/08/14 05:47:33;;;;;;;12.90;9.10;;;16.70;99.90;;;;;;5028407;28;20229;-39
2021/08/14 05:49:58;;;;;;;10.17;8.03;;;16.80;99.90;;;;;;5030151;28;20584;-38
2021/08/14 05:52:24;;;;;;;13.17;8.50;;;16.80;99.90;;;;;;5030142;28;20731;-38
2021/08/14 05:54:50;;;;;;;12.83;9.50;;;16.90;99.90;;;;;;5027321;28;20653;-39
2021/08/14 05:57:16;;;;;;;10.23;7.80;;;17.00;99.90;;;;;;5027600;28;20588;-38
2021/08/14 05:59:42;;;;;;;9.63;8.10;;;17.10;99.90;;;;;;5037805;28;20432;-38
2021/08/14 06:02:07;;;;;;;11.13;8.20;;;17.20;99.90;;;;;;5040487;28;20213;-38
2021/08/14 06:04:33;;;;;;;11.40;7.40;;;17.40;99.90;;;;;;5026985;28;20244;-39
2021/08/14 06:06:59;;;;;;;12.10;7.77;;;17.50;99.90;;;;;;5029621;28;20306;-40
2021/08/14 06:09:25;;;;;;;16.23;8.33;;;17.60;99.90;;;;;;5026590;28;20224;-38
2021/08/14 06:11:51;;;;;;;10.33;8.00;;;17.90;99.90;;;;;;5030426;28;20292;-39
2021/08/14 06:14:17;;;;;;;12.80;8.50;;;18.00;99.90;;;;;;5036269;28;20575;-39
2021/08/14 06:16:42;;;;;;;12.63;8.30;;;18.10;99.90;;;;;;5034987;28;20273;-39
2021/08/14 06:19:08;;;;;;;12.87;8.90;;;18.30;99.90;;;;;;5025835;28;20187;-38
2021/08/14 06:21:34;;;;;;;11.33;7.97;;;18.50;99.90;;;;;;5037371;28;20205;-38
2021/08/14 06:24:00;;;;;;;13.63;8.30;;;18.60;99.90;;;;;;5026603;28;20194;-39
2021/08/14 06:26:26;;;;;;;12.73;7.63;;;18.70;99.90;;;;;;5026089;28;20937;-38
2021/08/14 06:28:51;;;;;;;9.63;7.90;;;18.80;99.90;;;;;;5027007;28;20717;-40
2021/08/14 06:31:17;;;;;;;12.07;6.70;;;18.90;99.90;;;;;;5036367;28;20209;-38
2021/08/14 06:33:44;;;;;;;12.60;7.73;;;19.00;99.90;;;;;;5025943;28;20198;-38
2021/08/14 06:36:11;;;;;;;11.73;7.47;;;19.10;99.90;;;;;;5033397;28;20205;-41
2021/08/14 06:38:36;;;;;;;13.73;7.60;;;19.20;99.90;;;;;;5025566;28;20432;-39
2021/08/14 06:41:02;;;;;;;12.87;7.23;;;19.30;99.90;;;;;;5023491;28;20437;-38
2021/08/14 06:43:29;;;;;;;12.40;6.30;;;19.30;99.90;;;;;;5031551;28;20204;-39
2021/08/14 06:45:55;;;;;;;12.90;7.43;;;19.40;99.90;;;;;;5037133;28;20471;-39
2021/08/14 06:48:20;;;;;;;11.13;6.90;;;19.50;99.90;;;;;;5035027;28;20424;-39
2021/08/14 06:50:46;;;;;;;9.30;6.43;;;19.60;99.90;;;;;;5035747;28;20966;-39
2021/08/14 06:53:12;;;;;;;7.80;5.90;;;19.70;99.90;;;;;;5036124;28;20711;-38
2021/08/14 06:55:37;;;;;;;11.07;5.90;;;19.80;99.90;;;;;;5034675;28;20559;-39
2021/08/14 06:58:03;;;;;;;12.27;6.30;;;20.00;99.90;;;;;;5038059;28;20175;-40
2021/08/14 07:00:29;;;;;;;12.43;6.17;;;20.00;99.90;;;;;;5037445;28;20198;-39
2021/08/14 07:02:55;;;;;;;13.40;6.00;;;20.10;99.90;;;;;;5045016;28;20994;-40
2021/08/14 07:05:21;;;;;;;10.20;6.00;;;20.20;99.90;;;;;;5043972;28;20216;-44
2021/08/14 07:07:46;;;;;;;9.33;5.83;;;20.30;99.90;;;;;;5035152;28;20939;-39
2021/08/14 07:10:13;;;;;;;9.83;5.70;;;20.30;99.90;;;;;;5039371;28;20283;-38
2021/08/14 07:12:39;;;;;;;9.73;6.50;;;20.40;99.90;;;;;;5037238;28;20213;-40
2021/08/14 07:15:06;;;;;;;11.33;4.70;;;20.40;99.90;;;;;;5040137;28;20418;-39
2021/08/14 07:17:32;;;;;;;7.70;5.10;;;20.40;99.90;;;;;;5031695;28;20425;-42
2021/08/14 07:19:58;;;;;;;8.70;4.43;;;20.40;99.90;;;;;;5030395;28;20421;-43
2021/08/14 07:22:24;;;;;;;11.23;5.33;;;20.40;99.90;;;;;;5028467;28;20436;-39
2021/08/14 07:24:50;;;;;;;8.90;4.60;;;20.40;99.90;;;;;;5025684;28;20520;-39
2021/08/14 07:27:16;;;;;;;8.47;5.60;;;20.30;99.90;;;;;;5024759;28;20527;-43
2021/08/14 07:29:42;;;;;;;10.97;4.50;;;20.40;99.90;;;;;;5039375;28;20304;-40
2021/08/14 07:32:08;;;;;;;8.80;4.43;;;20.40;99.90;;;;;;5044614;28;20876;-41
2021/08/14 07:34:34;;;;;;;9.30;4.13;;;20.40;99.90;;;;;;5028919;28;20197;-42
2021/08/14 07:36:59;;;;;;;10.27;4.53;;;20.50;99.90;;;;;;5030177;28;20425;-39
2021/08/14 07:39:25;;;;;;;8.37;3.60;;;20.60;99.90;;;;;;5022972;28;20253;-39
2021/08/14 07:41:51;;;;;;;7.77;3.60;;;20.60;99.90;;;;;;5024821;28;20305;-39
2021/08/14 07:44:16;;;;;;;8.83;4.23;;;20.60;99.90;;;;;;5038620;28;20272;-40
2021/08/14 07:46:42;;;;;;;7.30;3.20;;;20.70;99.90;;;;;;5039260;28;20200;-38
2021/08/14 07:49:08;;;;;;;5.90;4.00;;;20.70;99.90;;;;;;5027149;28;20190;-40
2021/08/14 07:51:33;;;;;;;6.10;3.90;;;20.70;99.90;;;;;;5035192;28;20275;-39
2021/08/14 07:53:59;;;;;;;8.73;3.90;;;20.70;99.90;;;;;;5028272;28;20261;-39
2021/08/14 07:56:25;;;;;;;6.83;3.53;;;20.60;99.90;;;;;;5025450;28;20198;-40
2021/08/14 07:58:50;;;;;;;7.40;3.73;;;20.60;99.90;;;;;;5025779;28;20591;-39
2021/08/14 08:01:16;;;;;;;8.10;3.30;;;20.60;99.90;;;;;;5040115;28;20186;-39
2021/08/14 08:03:42;;;;;;;7.27;4.03;;;20.70;99.90;;;;;;5025142;28;20179;-39
2021/08/14 08:06:08;;;;;;;9.17;4.30;;;20.70;99.90;;;;;;5031370;28;20193;-39
2021/08/14 08:08:34;;;;;;;8.50;5.00;;;20.60;99.90;;;;;;5027791;28;21218;-39
2021/08/14 08:11:00;;;;;;;6.60;4.10;;;20.60;99.90;;;;;;5026172;28;20652;-39
2021/08/14 08:13:26;;;;;;;4.90;3.37;;;20.60;99.90;;;;;;5029286;28;20442;-38
2021/08/14 08:15:52;;;;;;;7.90;3.90;;;20.60;99.90;;;;;;5038087;28;20421;-41
2021/08/14 08:18:17;;;;;;;7.53;4.40;;;20.50;99.90;;;;;;5028136;28;20240;-40
2021/08/14 08:20:43;;;;;;;9.77;3.90;;;20.60;99.90;;;;;;5024913;28;20217;-39
2021/08/14 08:23:09;;;;;;;8.00;4.57;;;20.60;99.90;;;;;;5028548;28;20661;-39
2021/08/14 08:25:35;;;;;;;6.70;3.50;;;20.60;99.90;;;;;;5025086;28;20440;-39
2021/08/14 08:28:04;;;;;;;10.70;4.03;;;20.60;99.90;;;;;;5027827;28;20174;-38
2021/08/14 08:30:31;;;;;;;11.13;4.10;;;20.60;99.90;;;;;;5043815;28;20501;-43
2021/08/14 08:32:57;;;;;;;6.97;3.53;;;20.70;99.90;;;;;;5037367;28;20556;-40
2021/08/14 08:35:23;;;;;;;6.77;4.40;;;20.70;99.90;;;;;;5027108;28;20916;-39
2021/08/14 08:37:49;;;;;;;9.27;4.70;;;20.70;99.90;;;;;;5029335;28;20486;-39
2021/08/14 08:40:17;;;;;;;8.43;4.23;;;20.70;99.90;;;;;;5026417;28;20211;-39
2021/08/14 08:42:44;;;;;;;13.07;4.27;;;20.70;99.90;;;;;;5027999;28;20928;-38
2021/08/14 08:45:10;;;;;;;11.20;4.27;;;20.70;99.90;;;;;;5036447;28;20822;-38
2021/08/14 08:47:42;;;;;;;8.20;3.90;;;20.80;99.90;;;;;;5033676;28;20919;-39
2021/08/14 08:50:09;;;;;;;11.60;4.17;;;20.70;99.90;;;;;;5027792;28;20464;-39
2021/08/14 08:52:35;;;;;;;9.83;4.50;;;20.80;99.90;;;;;;5038242;28;20672;-39
2021/08/14 08:55:01;;;;;;;6.70;3.93;;;20.80;99.90;;;;;;5028447;28;20445;-39
2021/08/14 08:57:27;;;;;;;7.50;4.03;;;20.90;99.90;;;;;;5027385;28;20410;-39
2021/08/14 08:59:53;;;;;;;7.03;4.27;;;20.90;99.90;;;;;;5029172;28;20417;-42
2021/08/14 09:02:30;;;;;;;7.03;3.97;;;20.90;99.90;;;;;;5038782;28;20194;-42
2021/08/14 09:05:08;;;;;;;7.87;4.23;;;20.90;99.90;;;;;;5029776;28;20182;-41
2021/08/14 09:07:34;;;;;;;8.07;3.87;;;21.00;99.90;;;;;;5035241;28;20475;-40
2021/08/14 09:10:02;;;;;;;5.40;3.60;;;21.00;99.90;;;;;;5030416;28;20432;-39
2021/08/14 09:12:31;;;;;;;5.63;3.27;;;21.10;99.90;;;;;;5028368;28;20236;-42
2021/08/14 09:14:57;;;;;;;10.10;4.30;;;21.10;99.90;;;;;;5037651;28;20454;-39
2021/08/14 09:17:28;;;;;;;6.40;3.20;;;21.10;99.90;;;;;;5040471;28;20826;-39
2021/08/14 09:20:09;;;;;;;10.63;3.73;;;21.20;99.90;;;;;;5028494;28;20416;-41
2021/08/14 09:22:35;;;;;;;9.60;3.30;;;21.20;99.90;;;;;;5031373;28;20547;-38
2021/08/14 09:25:16;;;;;;;7.60;3.53;;;21.30;99.90;;;;;;5028268;28;20511;-41
2021/08/14 09:28:00;;;;;;;4.23;3.03;;;21.30;99.90;;;;;;5027276;28;20220;-42
2021/08/14 09:31:02;;;;;;;8.57;3.40;;;21.40;99.90;;;;;;5035713;28;20429;-42
2021/08/14 09:33:34;;;;;;;7.33;3.03;;;21.50;99.90;;;;;;5052018;28;20428;-42
2021/08/14 09:36:05;;;;;;;4.63;2.97;;;21.60;99.90;;;;;;5030302;28;20443;-40
2021/08/14 09:38:48;;;;;;;4.53;3.07;;;21.60;99.90;;;;;;5036925;28;20764;-42
2021/08/14 09:41:22;;;;;;;6.53;3.40;;;21.70;99.90;;;;;;5045407;28;20431;-39
2021/08/14 09:43:50;;;;;;;9.73;3.13;;;21.80;99.90;;;;;;5040566;28;20432;-44
2021/08/14 09:46:16;;;;;;;5.80;3.00;;;21.90;99.90;;;;;;5036144;28;20425;-42
2021/08/14 09:48:50;;;;;;;8.43;3.07;;;22.00;99.90;;;;;;5044163;28;20485;-41
2021/08/14 09:51:30;;;;;;;5.83;3.10;;;22.10;99.90;;;;;;5027237;28;21033;-41
2021/08/14 09:53:58;;;;;;;5.73;2.60;;;22.20;99.70;;;;;;5029476;28;20424;-40
2021/08/14 09:56:26;;;;;;;6.10;2.93;;;22.30;99.60;;;;;;5027082;28;20676;-40
2021/08/14 09:58:53;;;;;;;4.80;3.03;;;22.30;99.50;;;;;;5030058;28;20440;-39
2021/08/14 10:01:19;;;;;;;5.00;3.40;;;22.40;98.80;;;;;;5046441;28;20623;-42
2021/08/14 10:03:46;;;;;;;7.80;3.83;;;22.50;98.90;;;;;;5037478;28;20417;-44
2021/08/14 10:06:13;;;;;;;7.13;3.20;;;22.60;98.60;;;;;;5026650;28;20787;-40
2021/08/14 10:08:40;;;;;;;5.27;2.60;;;22.60;99.30;;;;;;5026441;28;20495;-40
2021/08/14 10:11:10;;;;;;;5.77;3.00;;;22.60;98.60;;;;;;5026973;28;20511;-39
2021/08/14 10:13:38;;;;;;;6.50;3.17;;;22.70;98.40;;;;;;5027632;28;20517;-39
2021/08/14 10:16:04;;;;;;;6.87;3.10;;;22.80;98.90;;;;;;5036631;28;20420;-40
2021/08/14 10:18:30;;;;;;;4.50;2.90;;;22.80;98.50;;;;;;5034238;28;20425;-39
2021/08/14 10:20:56;;;;;;;5.33;2.63;;;22.90;97.80;;;;;;5025704;28;20182;-42
2021/08/14 10:23:23;;;;;;;12.77;4.10;;;23.00;98.00;;;;;;5036709;28;20425;-40
2021/08/14 10:26:00;;;;;;;4.73;3.10;;;23.00;97.00;;;;;;5026255;28;20926;-41
2021/08/14 10:28:42;;;;;;;6.53;2.87;;;23.10;96.70;;;;;;5032906;28;20809;-39
2021/08/14 10:31:08;;;;;;;5.30;2.77;;;23.10;96.80;;;;;;5036495;28;20989;-41
2021/08/14 10:33:37;;;;;;;5.90;2.90;;;23.10;96.60;;;;;;5034446;28;20472;-44
2021/08/14 10:36:29;;;;;;;3.80;2.57;;;23.20;95.80;;;;;;5026161;28;20186;-43
2021/08/14 10:38:57;;;;;;;4.50;2.43;;;23.20;96.10;;;;;;5024502;28;20523;-44
2021/08/14 10:41:37;;;;;;;4.97;2.70;;;23.30;96.10;;;;;;5024686;28;20437;-41
2021/08/14 10:44:03;;;;;;;4.63;2.50;;;23.30;95.80;;;;;;5029546;28;20516;-44
2021/08/14 10:46:34;;;;;;;5.70;2.53;;;23.40;95.30;;;;;;5037330;28;20488;-41
2021/08/14 10:49:00;;;;;;;6.30;2.57;;;23.40;94.70;;;;;;5038343;28;20435;-39
2021/08/14 10:51:52;;;;;;;5.30;2.50;;;23.50;95.80;;;;;;5026008;28;21037;-40
2021/08/14 10:54:27;;;;;;;3.60;2.87;;;23.60;95.00;;;;;;5045678;28;20855;-39
2021/08/14 10:56:54;;;;;;;3.53;2.07;;;23.70;95.50;;;;;;5045539;28;20411;-42
2021/08/14 10:59:35;;;;;;;4.77;2.50;;;23.70;95.50;;;;;;5043585;28;20472;-40
2021/08/14 11:02:06;;;;;;;6.20;2.50;;;23.80;95.40;;;;;;5029601;28;20832;-42
2021/08/14 11:04:36;;;;;;;3.53;2.43;;;23.90;94.70;;;;;;5027475;28;20920;-42
2021/08/14 11:07:17;;;;;;;5.70;2.63;;;24.00;95.40;;;;;;5026102;28;21014;-39
2021/08/14 11:09:52;;;;;;;4.80;3.23;;;24.00;95.50;;;;;;5033096;28;20439;-39
2021/08/14 11:12:31;;;;;;;4.83;3.00;;;24.10;94.70;;;;;;5026000;28;20453;-39
2021/08/14 11:15:20;;;;;;;4.63;3.00;;;24.10;94.50;;;;;;5033247;28;20492;-39
2021/08/14 11:17:49;;;;;;;4.03;2.60;;;24.10;94.70;;;;;;5036399;28;20420;-40
2021/08/14 11:20:20;;;;;;;4.60;3.17;;;24.20;95.20;;;;;;5025375;28;20421;-40
2021/08/14 11:22:48;;;;;;;7.17;2.50;;;24.30;93.80;;;;;;5032646;28;20448;-41
2021/08/14 11:25:25;;;;;;;2.70;2.50;;;24.30;93.50;;;;;;5025761;28;20432;-40
2021/08/14 11:28:00;;;;;;;5.70;2.97;;;24.30;94.60;;;;;;5025753;28;20428;-40
2021/08/14 11:30:43;;;;;;;8.63;3.50;;;24.30;95.20;;;;;;5027050;28;20439;-42
2021/08/14 11:33:11;;;;;;;5.00;2.87;;;24.30;95.90;;;;;;5038708;28;20428;-42
2021/08/14 11:35:39;;;;;;;7.23;3.47;;;24.40;93.80;;;;;;5032483;28;20424;-45
2021/08/14 11:38:10;;;;;;;5.57;3.40;;;24.40;94.20;;;;;;5028321;28;20525;-43
2021/08/14 11:40:38;;;;;;;4.67;2.60;;;24.40;94.40;;;;;;5023670;28;20654;-42
2021/08/14 11:43:11;;;;;;;5.77;2.50;;;24.40;94.50;;;;;;5027529;28;20409;-42
2021/08/14 11:45:38;;;;;;;6.00;2.47;;;24.50;93.50;;;;;;5032014;28;20866;-44
2021/08/14 11:48:17;;;;;;;2.80;2.10;;;24.50;93.70;;;;;;5038749;28;20830;-39
2021/08/14 11:50:45;;;;;;;4.40;3.10;;;24.50;93.20;;;;;;5024458;28;20424;-41
2021/08/14 11:53:32;;;;;;;5.80;3.57;;;24.50;93.60;;;;;;5035023;28;20464;-43
2021/08/14 11:56:08;;;;;;;3.80;2.60;;;24.60;93.80;;;;;;5024982;28;20436;-43
2021/08/14 11:58:34;;;;;;;3.60;2.43;;;24.60;92.60;;;;;;5023682;28;20475;-39
2021/08/14 12:01:01;;;;;;;5.07;2.90;;;24.70;92.70;;;;;;5035862;28;20487;-42
2021/08/14 12:03:27;;;;;;;4.63;2.57;;;24.70;93.30;;;;;;5032821;28;20437;-40
2021/08/14 12:06:05;;;;;;;3.67;2.50;;;24.70;93.30;;;;;;5025198;28;20424;-40
2021/08/14 12:08:42;;;;;;;5.63;2.90;;;24.80;92.80;;;;;;5034356;28;20475;-45
2021/08/14 12:11:11;;;;;;;5.13;2.80;;;24.70;93.10;;;;;;5029570;28;20511;-42
2021/08/14 12:13:38;;;;;;;3.53;2.20;;;24.70;93.00;;;;;;5029060;28;20425;-40
2021/08/14 12:16:13;;;;;;;6.00;2.80;;;24.80;93.60;;;;;;5038110;28;20436;-42
2021/08/14 12:18:42;;;;;;;2.83;2.40;;;24.80;93.10;;;;;;5047135;28;20848;-43
2021/08/14 12:21:08;;;;;;;4.90;2.80;;;24.90;94.20;;;;;;5035617;28;20849;-42
2021/08/14 12:23:36;;;;;;;3.87;2.87;;;25.00;93.20;;;;;;5032566;28;20424;-42
2021/08/14 12:26:25;;;;;;;5.37;2.50;;;25.00;92.80;;;;;;5027288;28;20431;-43
2021/08/14 12:29:02;;;;;;;3.77;2.43;;;25.00;93.50;;;;;;5037829;28;20422;-40
2021/08/14 12:31:28;;;;;;;5.33;2.83;;;25.10;91.90;;;;;;5044656;28;20528;-39
2021/08/14 12:33:56;;;;;;;4.63;2.13;;;25.00;92.30;;;;;;5044091;28;20432;-40
2021/08/14 12:36:39;;;;;;;3.63;2.77;;;25.00;91.90;;;;;;5031057;28;20413;-40
2021/08/14 12:39:07;;;;;;;4.90;2.87;;;25.00;92.00;;;;;;5028010;28;20456;-41
2021/08/14 12:41:36;;;;;;;3.53;2.50;;;25.10;91.80;;;;;;5028076;28;20429;-44
2021/08/14 12:44:03;;;;;;;4.20;3.23;;;25.10;92.10;;;;;;5037388;28;20497;-39
2021/08/14 12:46:28;;;;;;;3.77;2.53;;;25.10;91.50;;;;;;5035631;28;20871;-40